Latest Coastal Weather Observations for Port Fairy

IDV60701

Issued at 11:21 am EST Monday 2 May 2016 (issued every 10 minutes, with the page automatically refreshed every 10 minutes)

About coastal observations | Map of coastal stations | Coastal observations for VIC | Marine services | Other Formats
Station Details ID: 090175 Name: PORT FAIRY AWS Lat: -38.39 Lon: 142.23 Height: 10.0 m
Data from the previous 72 hours. | See also: Recent months at Port Fairy
Date/Time
EST
Temp

°C
Wind Pressure Rain
since 9am
mm
Weather Cloud Vis
km
Sea
Height
m
Swell
Dir
 
Speed
knots
Gust
knots
hPa Trend Height
m
Period
s
Dir
02/11:00am 15.9 NNW 16 26 1008.2 - 0.0 - - - - - - -
02/10:33am 15.2 NNW 15 26 1008.7 - 0.0 - - - - - - -
02/10:30am 15.2 NNW 16 26 1008.8 - 0.0 - - - - - - -
02/10:12am 14.5 NNW 15 26 1008.9 - 0.0 - - - - - - -
02/10:00am 14.2 NNW 13 23 1009.0 - 0.0 - - - - - - -
02/09:48am 13.7 NNW 15 25 1009.3 - 0.0 - - - - - - -
02/09:30am 13.5 NNW 13 21 1009.5 - 0.0 - - - - - - -
02/09:00am 12.7 NNW 12 20 1009.8 - 4.2 - - - - - - -
02/08:30am 11.9 N 9 15 1010.2 - 4.2 - - - - - - -
02/08:00am 10.9 N 10 14 1010.3 - 4.2 - - - - - - -
02/07:30am 9.8 NNW 9 13 1010.3 - 4.2 - - - - - - -
02/07:00am 10.0 NNW 7 13 1010.6 - 4.2 - - - - - - -
02/06:30am 10.2 NNW 7 14 1010.8 - 4.2 - - - - - - -
02/06:00am 9.9 NNW 10 14 1010.9 - 4.2 - - - - - - -
02/05:30am 9.4 NNW 9 16 1011.1 - 4.2 - - - - - - -
02/05:00am 10.0 NNW 10 17 1011.1 - 4.2 - - - - - - -
02/04:30am 9.9 NNW 8 13 1011.2 - 4.2 - - - - - - -
02/04:00am 9.6 NNW 9 15 1011.4 - 4.2 - - - - - - -
02/03:30am 9.6 NNW 10 15 1011.7 - 4.2 - - - - - - -
02/03:00am 9.7 NNW 11 17 1012.1 - 4.2 - - - - - - -
02/02:30am 9.6 NNW 11 17 1012.4 - 4.2 - - - - - - -
02/02:00am 9.3 NNW 7 11 1012.7 - 4.2 - - - - - - -
02/01:30am 9.4 NNW 7 11 1013.0 - 4.2 - - - - - - -
02/01:00am 9.7 NNW 8 12 1013.2 - 4.2 - - - - - - -
02/12:30am 9.5 NNW 8 11 1013.7 - 4.2 - - - - - - -
02/12:00am 9.5 NNW 8 11 1013.7 - 4.2 - - - - - - -
 
Date/Time
EST
Temp

°C
Wind Pressure Rain
since 9am
mm
Weather Cloud Vis
km
Sea
Height
m
Swell
Dir
 
Speed
knots
Gust
knots
hPa Trend Height
m
Period
s
Dir
01/11:30pm 9.7 NNW 8 13 1013.9 - 4.2 - - - - - - -
01/11:00pm 9.6 NNW 7 10 1014.5 - 4.2 - - - - - - -
01/10:30pm 9.3 NNW 6 11 1014.5 - 4.2 - - - - - - -
01/10:00pm 9.6 NNW 7 12 1014.5 - 4.2 - - - - - - -
01/09:30pm 9.8 NNW 8 13 1014.5 - 4.2 - - - - - - -
01/09:00pm 9.4 NNW 8 12 1014.4 - 4.2 - - - - - - -
01/08:30pm 9.9 NNW 5 8 1014.4 - 4.2 - - - - - - -
01/08:00pm 10.8 NW 6 10 1014.2 - 4.2 - - - - - - -
01/07:30pm 11.7 NW 8 13 1014.1 - 4.2 - - - - - - -
01/07:00pm 12.5 W 11 17 1014.0 - 4.2 - - - - - - -
01/06:30pm 12.8 W 14 20 1013.8 - 4.2 - - - - - - -
01/06:00pm 13.0 W 13 19 1013.5 - 4.2 - - - - - - -
01/05:30pm 12.9 W 16 22 1013.4 - 4.2 - - - - - - -
01/05:18pm 12.7 W 17 27 1013.4 - 4.2 - - - - - - -
01/05:00pm 13.6 WSW 19 27 1013.1 - 4.2 - - - - - - -
01/04:30pm 13.6 W 15 22 1012.7 - 4.2 - - - - - - -
01/04:00pm 13.9 W 20 27 1012.5 - 4.2 - - - - - - -
01/03:30pm 14.4 WSW 21 28 1012.1 - 4.2 - - - - - - -
01/03:00pm 14.1 WSW 18 25 1011.6 - 4.2 Recent precip. - - - - - -
01/02:31pm 14.7 W 19 32 1011.1 - 4.0 - - - - - - -
01/02:30pm 15.0 W 18 25 1011.1 - 4.0 - - - - - - -
01/02:00pm 14.6 WSW 23 31 1010.8 - 4.0 - - - - - - -
01/01:46pm 14.3 WSW 19 29 1010.6 - 4.0 - - - - - - -
01/01:30pm 14.7 WSW 22 30 1010.5 - 4.0 - - - - - - -
01/01:00pm 13.2 W 17 30 1010.3 - 4.0 - - - - - - -
01/12:30pm 11.6 WSW 22 32 1010.1 - 4.0 - - - - - - -
01/12:29pm 12.2 WSW 22 32 1010.1 - 3.8 - - - - - - -
01/12:00pm 13.3 WSW 23 30 1009.8 - 3.6 Rain - - - - - -
01/11:30am 13.4 W 19 29 1009.5 - 3.4 - - - - - - -
01/11:24am 13.1 W 19 29 1009.4 - 3.4 - - - - - - -
01/11:00am 12.1 W 21 30 1009.1 - 3.4 - - - - - - -
01/10:50am 12.3 WSW 22 33 1008.9 - 3.4 - - - - - - -
01/10:39am 11.3 W 9 24 1008.8 - 3.4 - - - - - - -
01/10:30am 11.1 WNW 6 9 1008.7 - 3.4 - - - - - - -
01/10:00am 10.0 NW 11 19 1008.1 - 3.4 - - - - - - -
01/09:30am 10.3 NW 11 21 1007.4 - 0.4 - - - - - - -
01/09:00am 10.8 NW 9 14 1007.3 - 11.4 Rain - - - - - -
01/08:30am 9.5 W 20 32 1006.9 - 9.6 - - - - - - -
01/08:29am 9.5 WNW 20 32 1006.9 - 9.4 - - - - - - -
01/08:25am 9.6 WNW 17 32 1006.8 - 9.2 - - - - - - -
01/08:21am 10.2 NW 15 25 1006.6 - 8.8 - - - - - - -
01/08:00am 12.3 W 14 21 1005.6 - 7.2 - - - - - - -
01/07:30am 13.0 WSW 19 23 1004.4 - 7.0 - - - - - - -
01/07:00am 12.7 W 17 23 1003.8 - 7.0 - - - - - - -
01/06:30am 11.9 WSW 22 31 1003.1 - 7.0 - - - - - - -
01/06:18am 11.7 W 13 28 1003.0 - 6.8 - - - - - - -
01/06:00am 11.4 NW 9 16 1002.4 - 6.8 Recent precip. - - - - - -
01/05:30am 11.6 NW 10 17 1001.9 - 5.2 - - - - - - -
01/05:00am 12.0 NW 11 17 1001.8 - 4.4 - - - - - - -
01/04:30am 12.8 NNW 11 17 1001.3 - 3.8 - - - - - - -
01/04:00am 13.4 NW 10 17 1001.0 - 3.6 - - - - - - -
01/03:33am 13.7 WNW 15 26 1000.5 - 3.6 - - - - - - -
01/03:30am 13.8 WNW 16 26 1000.6 - 3.6 - - - - - - -
01/03:01am 15.8 NNW 15 26 1000.0 - 3.6 - - - - - - -
01/03:00am 15.9 NNW 16 26 1000.0 - 3.6 - - - - - - -
01/02:58am 15.9 NNW 15 26 1000.0 - 3.6 - - - - - - -
01/02:30am 15.6 NNW 12 18 999.8 - 3.6 - - - - - - -
01/02:00am 15.8 NNW 13 21 1000.2 - 3.6 - - - - - - -
01/01:30am 16.0 NNW 13 23 1000.7 - 3.6 - - - - - - -
01/01:00am 15.0 NNW 8 14 1000.9 - 3.6 - - - - - - -
01/12:30am 14.6 N 9 15 1000.9 - 3.6 - - - - - - -
01/12:00am 15.0 NNW 8 13 1001.0 - 3.6 Rain - - - - - -
 
Date/Time
EST
Temp

°C
Wind Pressure Rain
since 9am
mm
Weather Cloud Vis
km
Sea
Height
m
Swell
Dir
 
Speed
knots
Gust
knots
hPa Trend Height
m
Period
s
Dir
30/11:41pm 15.6 NW 9 27 1001.9 - 1.8 - - - - - - -
30/11:40pm 15.7 NW 8 27 1002.2 - 1.4 - - - - - - -
30/11:30pm 14.8 NW 4 6 1001.2 - 0.0 - - - - - - -
30/11:00pm 15.2 WNW 7 13 1002.2 - 0.0 - - - - - - -
30/10:30pm 15.9 NNE 4 7 1002.6 - 0.0 - - - - - - -
30/10:00pm 17.0 NNE 6 11 1003.5 - 0.0 - - - - - - -
30/09:30pm 16.9 NNE 7 10 1004.3 - 0.0 - - - - - - -
30/09:00pm 17.2 NNE 7 10 1004.7 - 0.0 - - - - - - -
30/08:30pm 17.6 NNE 6 9 1005.0 - 0.0 - - - - - - -
30/08:00pm 17.5 N 5 8 1005.8 - 0.0 - - - - - - -
30/07:30pm 16.4 NNE 4 6 1006.1 - 0.0 - - - - - - -
30/07:00pm 17.0 NNE 4 6 1006.1 - 0.0 - - - - - - -
30/06:30pm 17.5 NNE 3 4 1006.3 - 0.0 - - - - - - -
30/06:00pm 18.8 NNW 2 4 1006.2 - 0.0 - - - - - - -
30/05:30pm 20.5 N 4 7 1006.3 - 0.0 - - - - - - -
30/05:00pm 21.9 NNW 7 13 1006.7 - 0.0 - - - - - - -
30/04:30pm 22.7 NNW 10 19 1006.9 - 0.0 - - - - - - -
30/04:00pm 22.9 NNW 11 18 1007.2 - 0.0 - - - - - - -
30/03:30pm 23.2 NNW 11 16 1007.3 - 0.0 - - - - - - -
30/03:00pm 23.2 NNW 11 19 1007.6 - 0.0 - - - - - - -
30/02:30pm 22.9 NNW 13 21 1008.0 - 0.0 - - - - - - -
30/02:00pm 22.7 NW 11 18 1008.3 - 0.0 - - - - - - -
30/01:30pm 22.3 NNW 13 23 1008.7 - 0.0 - - - - - - -
30/01:00pm 21.8 NNW 13 22 1009.4 - 0.0 - - - - - - -
30/12:30pm 21.6 NW 11 17 1009.8 - 0.0 - - - - - - -
30/12:00pm 21.5 NNW 10 16 1010.2 - 0.0 - - - - - - -
30/11:30am 20.6 NNW 12 21 1010.4 - 0.0 - - - - - - -
30/11:00am 19.5 NNW 10 18 1010.8 - 0.0 - - - - - - -
30/10:30am 19.8 NNW 11 17 1010.8 - 0.0 - - - - - - -
30/10:00am 18.9 NNW 11 18 1010.9 - 0.0 - - - - - - -
30/09:30am 18.1 N 8 13 1011.2 - 0.0 - - - - - - -
30/09:00am 16.8 N 7 10 1011.5 - 3.0 - - - - - - -
30/08:30am 15.5 N 5 9 1011.8 - 3.0 - - - - - - -
30/08:00am 14.1 N 5 7 1011.6 - 3.0 - - - - - - -
30/07:30am 12.8 N 3 5 1011.3 - 3.0 - - - - - - -
30/07:00am 12.9 N 3 5 1011.0 - 3.0 - - - - - - -
30/06:30am 13.3 NNE 5 7 1010.9 - 3.0 - - - - - - -
30/06:00am 13.6 N 4 6 1010.8 - 3.0 Recent precip. - - - - - -
30/05:30am 13.9 N 5 9 1010.8 - 2.8 - - - - - - -
30/05:00am 14.0 N 6 8 1010.9 - 2.8 - - - - - - -
30/04:30am 14.1 N 6 9 1010.8 - 2.8 - - - - - - -
30/04:00am 14.1 N 6 8 1010.6 - 2.8 - - - - - - -
30/03:30am 14.0 N 7 10 1010.6 - 2.8 - - - - - - -
30/03:00am 13.8 N 7 10 1010.8 - 2.8 - - - - - - -
30/02:30am 13.6 N 7 9 1010.9 - 2.8 - - - - - - -
30/02:00am 13.6 N 6 9 1011.1 - 2.8 - - - - - - -
30/01:30am 13.6 N 5 7 1011.3 - 2.8 - - - - - - -
30/01:00am 13.4 N 5 8 1011.4 - 2.8 - - - - - - -
30/12:30am 13.0 NNE 5 7 1011.5 - 2.8 - - - - - - -
30/12:00am 12.9 NNE 3 4 1011.8 - 2.8 - - - - - - -
 
Date/Time
EST
Temp

°C
Wind Pressure Rain
since 9am
mm
Weather Cloud Vis
km
Sea
Height
m
Swell
Dir
 
Speed
knots
Gust
knots
hPa Trend Height
m
Period
s
Dir
29/11:30pm 13.6 N 5 7 1012.0 - 2.8 - - - - - - -
29/11:00pm 12.9 NNE 4 7 1012.4 - 2.8 - - - - - - -
29/10:30pm 13.1 NNE 4 6 1012.7 - 2.8 - - - - - - -
29/10:00pm 13.4 N 5 8 1012.8 - 2.8 - - - - - - -
29/09:30pm 13.9 N 5 7 1012.5 - 2.8 - - - - - - -
29/09:00pm 14.3 N 7 10 1012.2 - 2.8 - - - - - - -
29/08:30pm 14.4 N 6 9 1011.9 - 2.8 - - - - - - -
29/08:00pm 14.3 N 5 8 1012.0 - 2.8 - - - - - - -
29/07:30pm 14.7 N 5 7 1012.1 - 2.8 - - - - - - -
29/07:00pm 15.2 N 6 8 1012.1 - 2.8 - - - - - - -
29/06:30pm 15.7 N 5 8 1011.6 - 2.8 - - - - - - -
29/06:00pm 16.1 N 7 11 1011.2 - 2.8 - - - - - - -
29/05:30pm 17.1 N 6 9 1011.1 - 2.8 - - - - - - -
29/05:00pm 18.4 NNW 6 11 1010.9 - 2.8 - - - - - - -
29/04:30pm 18.3 NNW 8 13 1010.8 - 2.8 - - - - - - -
29/04:00pm 18.3 NNW 8 14 1010.9 - 2.8 - - - - - - -
29/03:30pm 18.3 NNW 9 14 1010.7 - 2.8 - - - - - - -
29/03:00pm 17.4 NW 9 14 1010.3 - 2.8 - - - - - - -
29/02:30pm 16.6 NNW 9 14 1010.4 - 2.8 - - - - - - -
29/02:00pm 15.7 NNW 8 12 1010.4 - 2.8 - - - - - - -
29/01:30pm 15.5 N 9 15 1010.4 - 2.6 - - - - - - -
29/01:00pm 15.8 NNW 8 14 1010.6 - 2.2 - - - - - - -
29/12:30pm 15.9 NNW 8 13 1011.0 - 1.8 - - - - - - -
29/12:00pm 16.4 NNW 8 14 1011.5 - 0.6 Rain - - - - - -
29/11:30am 16.6 NNW 7 12 1011.6 - 0.2 - - - - - - -

Other Formats:

Comma delimited format used in spreadsheet applications
http://www.bom.gov.au/fwo/IDV60701/IDV60701.94830.axf

JavaScript Object Notation format (JSON) in row-major order
http://www.bom.gov.au/fwo/IDV60701/IDV60701.94830.json